Guidonia Airport LIRG

Flugplatz Daten

Name: Guidonia Airport

Ident: LIRG

Lat: 41,99029922

Long: 12,7407999

Platzhöhe: 289 ft

IataCode:

City: Guidonia

Metar

2021/08/05 12:55
LIRG 051255Z 23011KT 190V260 9999 FEW025 SCT040 27/14 Q1010 RMK BKN MON NE LIB NC VIS MIN 9999 BLU

Taf

Gewünschte Webcam nicht vorhanden? Dann fügen Sie eine hinzu. Sie wird dann so schnell wie möglich freigeschaltet
Url: Title: